createdAt,value
2017-06-29T00:02:16.042Z,96.60
2017-06-29T00:04:42.512Z,96.70
2017-06-29T00:07:08.937Z,96.70
2017-06-29T00:09:35.437Z,96.40
2017-06-29T00:12:01.892Z,96.20
2017-06-29T00:14:29.039Z,96.00
2017-06-29T00:16:55.448Z,96.00
2017-06-29T00:19:22.644Z,96.60
2017-06-29T00:21:49.035Z,96.60
2017-06-29T00:24:15.467Z,96.80
2017-06-29T00:26:41.962Z,96.80
2017-06-29T00:29:08.375Z,97.40
2017-06-29T00:31:34.813Z,97.90
2017-06-29T00:34:01.274Z,98.00
2017-06-29T00:36:27.704Z,98.20
2017-06-29T00:38:54.886Z,98.20
2017-06-29T00:41:21.352Z,98.20
2017-06-29T00:43:47.744Z,98.20
2017-06-29T00:46:14.947Z,98.10
2017-06-29T00:48:41.349Z,98.10
2017-06-29T00:51:07.719Z,98.00
2017-06-29T00:53:34.111Z,97.80
2017-06-29T00:56:00.527Z,98.20
2017-06-29T00:58:26.887Z,98.30
2017-06-29T01:00:53.307Z,98.30
2017-06-29T01:03:19.720Z,98.40
2017-06-29T01:05:46.093Z,98.10
2017-06-29T01:08:12.496Z,98.50
2017-06-29T01:10:38.895Z,98.40
2017-06-29T01:13:06.083Z,98.30
2017-06-29T01:15:32.515Z,98.30
2017-06-29T01:17:58.916Z,98.40
2017-06-29T01:20:25.328Z,98.70
2017-06-29T01:22:51.752Z,98.90
2017-06-29T01:25:18.156Z,98.20
2017-06-29T01:27:44.541Z,98.30
2017-06-29T01:30:10.979Z,98.30
2017-06-29T01:32:37.436Z,98.10
2017-06-29T01:35:03.812Z,98.40
2017-06-29T01:37:31.325Z,97.10
2017-06-29T01:39:57.772Z,96.90
2017-06-29T01:42:24.187Z,96.60
2017-06-29T01:44:50.676Z,96.40
2017-06-29T01:47:17.099Z,96.10
2017-06-29T01:49:43.519Z,95.40
2017-06-29T01:52:09.963Z,95.40
2017-06-29T01:54:36.352Z,95.40
2017-06-29T01:57:02.775Z,95.30
2017-06-29T01:59:29.247Z,95.20
2017-06-29T02:01:55.667Z,95.30
2017-06-29T02:04:22.150Z,95.00
2017-06-29T02:06:48.596Z,94.80
2017-06-29T02:09:15.055Z,95.00
2017-06-29T02:11:41.553Z,95.10
2017-06-29T02:14:08.744Z,95.40
2017-06-29T02:16:35.188Z,95.40
2017-06-29T02:19:01.623Z,96.10
2017-06-29T02:21:28.776Z,96.90
2017-06-29T02:23:55.184Z,96.90
2017-06-29T02:26:22.319Z,98.40
2017-06-29T02:28:48.720Z,98.40
2017-06-29T02:31:15.887Z,99.70
2017-06-29T02:33:42.391Z,99.70
2017-06-29T02:36:08.775Z,99.90
2017-06-29T02:38:35.175Z,99.90
2017-06-29T02:41:01.607Z,99.90
2017-06-29T02:43:28.007Z,99.90
2017-06-29T02:45:54.431Z,99.90
2017-06-29T02:48:20.855Z,99.90
2017-06-29T02:50:47.264Z,99.90
2017-06-29T02:53:13.665Z,99.90
2017-06-29T02:55:40.157Z,99.90
2017-06-29T02:58:06.559Z,99.90
2017-06-29T03:00:33.000Z,99.90
2017-06-29T03:02:59.396Z,99.90
2017-06-29T03:05:25.779Z,99.90
2017-06-29T03:07:52.950Z,99.90
2017-06-29T03:10:19.332Z,99.90
2017-06-29T03:12:46.782Z,99.90
2017-06-29T03:15:13.227Z,99.90
2017-06-29T03:17:39.644Z,99.90
2017-06-29T03:20:06.045Z,99.90
2017-06-29T03:22:32.539Z,99.90
2017-06-29T03:24:59.983Z,99.90
2017-06-29T03:27:27.183Z,99.90
2017-06-29T03:29:53.619Z,99.90
2017-06-29T03:32:20.056Z,99.90
2017-06-29T03:34:46.492Z,99.90
2017-06-29T03:37:13.032Z,99.90
2017-06-29T03:39:39.412Z,99.90
2017-06-29T03:42:06.535Z,99.90
2017-06-29T03:44:33.005Z,99.90
2017-06-29T03:46:59.439Z,99.90
2017-06-29T03:49:25.886Z,99.90
2017-06-29T03:51:52.293Z,99.90
2017-06-29T03:54:18.691Z,99.90
2017-06-29T03:56:45.085Z,99.90
2017-06-29T03:59:11.523Z,99.90
2017-06-29T04:01:37.944Z,99.90
2017-06-29T04:04:04.360Z,99.90
2017-06-29T04:06:30.765Z,99.90
2017-06-29T04:08:57.143Z,99.90
2017-06-29T04:11:24.292Z,99.90
2017-06-29T04:13:51.072Z,99.90
2017-06-29T04:16:17.490Z,99.90
2017-06-29T04:18:43.882Z,99.90
2017-06-29T04:21:10.311Z,99.90
2017-06-29T04:23:36.733Z,99.90
2017-06-29T04:26:03.137Z,99.90
2017-06-29T04:28:29.543Z,99.90
2017-06-29T04:30:55.979Z,99.90
2017-06-29T04:33:22.352Z,99.90
2017-06-29T04:35:48.760Z,99.90
2017-06-29T04:38:15.157Z,99.90
2017-06-29T04:40:42.358Z,99.90
2017-06-29T04:43:09.624Z,99.90
2017-06-29T04:45:36.008Z,99.90
2017-06-29T04:48:02.419Z,99.90
2017-06-29T04:50:29.956Z,99.90
2017-06-29T04:52:56.373Z,99.90
2017-06-29T04:55:22.763Z,99.90
2017-06-29T04:57:50.126Z,99.90
2017-06-29T05:00:16.531Z,99.90
2017-06-29T05:02:42.987Z,99.90
2017-06-29T05:05:09.404Z,99.90
2017-06-29T05:07:35.818Z,99.90
2017-06-29T05:10:02.207Z,99.90
2017-06-29T05:12:28.727Z,99.90
2017-06-29T05:14:55.170Z,99.90
2017-06-29T05:17:22.567Z,99.90
2017-06-29T05:19:49.013Z,99.90
2017-06-29T05:22:16.145Z,99.90
2017-06-29T05:24:43.352Z,99.90
2017-06-29T05:27:09.873Z,99.90
2017-06-29T05:29:36.284Z,99.90
2017-06-29T05:32:02.770Z,99.90
2017-06-29T05:34:29.228Z,99.90
2017-06-29T05:36:55.671Z,99.90
2017-06-29T05:39:22.140Z,99.90
2017-06-29T05:41:48.626Z,99.90
2017-06-29T05:44:15.104Z,99.90
2017-06-29T05:46:42.296Z,99.90
2017-06-29T05:49:08.771Z,99.90
2017-06-29T05:51:35.231Z,99.90
2017-06-29T05:54:01.655Z,99.90
2017-06-29T05:56:28.105Z,99.90
2017-06-29T05:58:54.539Z,99.90
2017-06-29T06:01:20.988Z,99.90
2017-06-29T06:03:47.404Z,99.90
2017-06-29T06:06:14.897Z,99.90
2017-06-29T06:08:42.044Z,99.90
2017-06-29T06:11:08.556Z,99.90
2017-06-29T06:13:34.980Z,99.90
2017-06-29T06:16:01.372Z,99.90
2017-06-29T06:18:27.823Z,99.90
2017-06-29T06:20:54.266Z,99.90
2017-06-29T06:23:20.681Z,99.90
2017-06-29T06:25:47.144Z,99.90
2017-06-29T06:28:14.393Z,99.90
2017-06-29T06:30:41.638Z,99.90
2017-06-29T06:33:08.153Z,99.90
2017-06-29T06:35:35.292Z,99.90
2017-06-29T06:38:01.659Z,99.90
2017-06-29T06:40:28.339Z,99.90
2017-06-29T06:42:55.526Z,99.90
2017-06-29T06:45:22.052Z,99.90
2017-06-29T06:47:49.351Z,99.90
2017-06-29T06:50:15.831Z,99.90
2017-06-29T06:52:42.276Z,99.50
2017-06-29T06:55:08.719Z,99.90
2017-06-29T06:57:35.128Z,99.90
2017-06-29T07:00:01.536Z,97.80
2017-06-29T07:02:28.100Z,99.10
2017-06-29T07:04:54.491Z,99.60
2017-06-29T07:07:20.899Z,99.70
2017-06-29T07:09:47.324Z,97.80
2017-06-29T07:12:13.735Z,98.90
2017-06-29T07:14:40.104Z,99.20
2017-06-29T07:17:06.603Z,99.50
2017-06-29T07:19:33.754Z,98.80
2017-06-29T07:22:00.900Z,99.90
2017-06-29T07:24:27.363Z,99.80
2017-06-29T07:26:53.881Z,99.90
2017-06-29T07:29:20.275Z,99.80
2017-06-29T07:31:46.722Z,99.30
2017-06-29T07:34:13.127Z,99.00
2017-06-29T07:36:39.669Z,98.60
2017-06-29T07:39:08.694Z,97.30
2017-06-29T07:41:35.192Z,98.30
2017-06-29T07:44:02.322Z,97.80
2017-06-29T07:46:28.808Z,97.40
2017-06-29T07:48:55.249Z,97.10
2017-06-29T07:51:21.779Z,97.10
2017-06-29T07:53:48.216Z,97.60
2017-06-29T07:56:14.676Z,96.50
2017-06-29T07:58:41.051Z,97.00
2017-06-29T08:01:07.464Z,97.10
2017-06-29T08:03:33.883Z,96.70
2017-06-29T08:06:04.344Z,97.10
2017-06-29T08:08:30.756Z,95.70
2017-06-29T08:10:57.168Z,96.50
2017-06-29T08:13:24.374Z,94.60
2017-06-29T08:15:51.395Z,94.70
2017-06-29T08:18:17.776Z,94.90
2017-06-29T08:20:44.976Z,93.50
2017-06-29T08:23:11.372Z,93.50
2017-06-29T08:25:37.770Z,93.80
2017-06-29T08:28:06.203Z,91.30
2017-06-29T08:30:32.604Z,91.10
2017-06-29T08:32:59.015Z,92.00
2017-06-29T08:35:25.424Z,91.50
2017-06-29T08:37:51.860Z,93.30
2017-06-29T08:40:18.285Z,91.60
2017-06-29T08:42:44.667Z,92.00
2017-06-29T08:45:11.075Z,92.50
2017-06-29T08:47:37.499Z,91.70
2017-06-29T08:50:03.876Z,92.90
2017-06-29T08:52:30.296Z,93.30
2017-06-29T08:54:57.442Z,93.20
2017-06-29T08:57:23.832Z,93.20
2017-06-29T08:59:50.276Z,91.90
2017-06-29T09:02:16.684Z,93.20
2017-06-29T09:04:43.071Z,92.50
2017-06-29T09:07:10.260Z,92.80
2017-06-29T09:09:36.696Z,92.80
2017-06-29T09:12:03.100Z,91.40
2017-06-29T09:14:29.516Z,92.20
2017-06-29T09:16:55.944Z,91.90
2017-06-29T09:19:22.319Z,92.00
2017-06-29T09:21:48.711Z,94.30
2017-06-29T09:24:15.108Z,94.60
2017-06-29T09:26:41.491Z,92.00
2017-06-29T09:29:07.894Z,93.60
2017-06-29T09:31:34.280Z,93.80
2017-06-29T09:34:00.656Z,95.10
2017-06-29T09:36:27.064Z,94.60
2017-06-29T09:38:53.453Z,92.60
2017-06-29T09:41:19.893Z,90.00
2017-06-29T09:43:46.359Z,91.70
2017-06-29T09:46:12.807Z,90.10
2017-06-29T09:48:39.176Z,87.80
2017-06-29T09:51:06.349Z,84.30
2017-06-29T09:53:32.800Z,84.30
2017-06-29T09:55:59.328Z,88.90
2017-06-29T09:58:25.820Z,83.90
2017-06-29T10:00:52.215Z,87.60
2017-06-29T10:03:18.669Z,90.80
2017-06-29T10:05:45.084Z,90.60
2017-06-29T10:08:11.500Z,86.70
2017-06-29T10:10:37.912Z,92.30
2017-06-29T10:13:04.471Z,86.50
2017-06-29T10:15:30.887Z,90.20
2017-06-29T10:17:57.299Z,88.10
2017-06-29T10:20:23.769Z,81.60
2017-06-29T10:22:50.163Z,78.80
2017-06-29T10:25:17.266Z,86.50
2017-06-29T10:27:43.661Z,86.40
2017-06-29T10:30:10.071Z,76.90
2017-06-29T10:32:36.463Z,80.10
2017-06-29T10:35:02.863Z,78.80
2017-06-29T10:37:29.271Z,78.60
2017-06-29T10:39:55.697Z,79.00
2017-06-29T10:42:22.115Z,81.90
2017-06-29T10:44:48.553Z,79.70
2017-06-29T10:47:14.942Z,80.10
2017-06-29T10:49:41.336Z,74.90
2017-06-29T10:52:07.756Z,81.30
2017-06-29T10:54:34.148Z,82.30
2017-06-29T10:57:00.580Z,79.70
2017-06-29T10:59:27.011Z,86.90
2017-06-29T11:01:53.408Z,88.60
2017-06-29T11:04:19.845Z,82.90
2017-06-29T11:06:46.283Z,80.70
2017-06-29T11:09:12.645Z,79.30
2017-06-29T11:11:39.064Z,84.50
2017-06-29T11:14:05.476Z,81.50
2017-06-29T11:16:31.833Z,83.00
2017-06-29T11:18:58.252Z,86.50
2017-06-29T11:21:25.724Z,84.90
2017-06-29T11:23:52.119Z,82.00
2017-06-29T11:26:18.499Z,80.20
2017-06-29T11:28:44.896Z,77.90
2017-06-29T11:31:11.280Z,78.60
2017-06-29T11:33:38.720Z,71.80
2017-06-29T11:36:05.116Z,75.20
2017-06-29T11:38:31.491Z,77.30
2017-06-29T11:40:57.923Z,82.20
2017-06-29T11:43:24.324Z,81.50
2017-06-29T11:45:50.735Z,84.70
2017-06-29T11:48:17.195Z,78.80
2017-06-29T11:50:43.596Z,76.30
2017-06-29T11:53:11.032Z,73.80
2017-06-29T11:55:38.211Z,71.80
2017-06-29T11:58:04.592Z,71.80
2017-06-29T12:00:30.965Z,75.10
2017-06-29T12:02:57.391Z,73.70
2017-06-29T12:05:23.781Z,77.40
2017-06-29T12:07:50.177Z,75.10
2017-06-29T12:10:17.304Z,76.00
2017-06-29T12:12:44.463Z,79.40
2017-06-29T12:15:10.868Z,79.40
2017-06-29T12:17:37.311Z,80.20
2017-06-29T12:20:03.731Z,81.80
2017-06-29T12:22:30.112Z,81.60
2017-06-29T12:24:56.507Z,84.40
2017-06-29T12:27:22.939Z,84.00
2017-06-29T12:29:49.307Z,82.30
2017-06-29T12:32:15.807Z,79.70
2017-06-29T12:37:19.664Z,84.20
2017-06-29T12:39:46.083Z,84.00
2017-06-29T12:42:12.492Z,84.80
2017-06-29T12:44:39.602Z,87.30
2017-06-29T12:47:06.056Z,87.30
2017-06-29T12:49:33.216Z,84.60
2017-06-29T12:51:59.647Z,83.80
2017-06-29T12:54:26.051Z,81.10
2017-06-29T12:56:52.519Z,80.70
2017-06-29T12:59:19.673Z,76.70
2017-06-29T13:01:46.072Z,76.50
2017-06-29T13:04:12.463Z,76.00
2017-06-29T13:06:38.852Z,76.60
2017-06-29T13:09:05.259Z,76.10
2017-06-29T13:11:32.367Z,75.60
2017-06-29T13:13:58.765Z,75.50
2017-06-29T13:16:25.193Z,75.40
2017-06-29T13:18:51.580Z,74.60
2017-06-29T13:21:17.979Z,75.00
2017-06-29T13:23:45.472Z,71.40
2017-06-29T13:26:11.860Z,68.80
2017-06-29T13:28:38.280Z,69.10
2017-06-29T13:31:04.708Z,60.90
2017-06-29T13:33:31.127Z,66.00
2017-06-29T13:35:57.479Z,62.40
2017-06-29T13:38:24.654Z,60.30
2017-06-29T13:40:51.067Z,60.30
2017-06-29T13:43:17.472Z,65.50
2017-06-29T13:45:43.871Z,67.60
2017-06-29T13:48:10.280Z,62.60
2017-06-29T13:50:36.679Z,63.60
2017-06-29T13:53:03.053Z,60.50
2017-06-29T13:55:29.488Z,61.80
2017-06-29T13:57:55.878Z,59.80
2017-06-29T14:00:22.324Z,60.10
2017-06-29T14:02:48.728Z,55.80
2017-06-29T14:05:15.135Z,57.40
2017-06-29T14:07:41.580Z,59.60
2017-06-29T14:10:08.044Z,53.10
2017-06-29T14:12:34.459Z,51.90
2017-06-29T14:15:00.925Z,53.00
2017-06-29T14:17:27.357Z,51.10
2017-06-29T14:19:54.496Z,55.20
2017-06-29T14:22:20.857Z,55.30
2017-06-29T14:24:47.259Z,53.10
2017-06-29T14:27:13.724Z,55.10
2017-06-29T14:29:40.144Z,60.20
2017-06-29T14:32:06.539Z,57.60
2017-06-29T14:34:32.988Z,62.70
2017-06-29T14:36:59.419Z,53.30
2017-06-29T14:39:25.812Z,54.70
2017-06-29T14:41:52.227Z,57.10
2017-06-29T14:44:18.649Z,51.30
2017-06-29T14:46:45.046Z,41.90
2017-06-29T14:49:11.468Z,43.30
2017-06-29T14:51:37.906Z,34.80
2017-06-29T14:54:04.325Z,31.70
2017-06-29T14:56:30.736Z,28.20
2017-06-29T14:58:57.183Z,32.00
2017-06-29T15:01:24.344Z,29.70
2017-06-29T15:03:50.751Z,29.60
2017-06-29T15:06:17.192Z,29.50
2017-06-29T15:08:43.575Z,31.60
2017-06-29T15:11:10.040Z,34.30
2017-06-29T15:13:36.427Z,41.10
2017-06-29T15:16:02.800Z,37.30
2017-06-29T15:18:29.204Z,41.50
2017-06-29T15:20:56.665Z,35.00
2017-06-29T15:23:23.048Z,39.70
2017-06-29T15:25:49.496Z,37.90
2017-06-29T15:28:15.872Z,36.30
2017-06-29T15:30:42.328Z,38.80
2017-06-29T15:33:08.771Z,45.70
2017-06-29T15:35:35.196Z,44.90
2017-06-29T15:38:01.666Z,47.00
2017-06-29T15:40:28.117Z,48.00
2017-06-29T15:42:54.547Z,51.20
2017-06-29T15:45:20.952Z,53.90
2017-06-29T15:47:47.380Z,55.00
2017-06-29T15:50:13.844Z,58.50
2017-06-29T15:52:41.300Z,59.50
2017-06-29T15:55:08.436Z,60.40
2017-06-29T15:57:34.868Z,59.80
2017-06-29T16:00:01.240Z,60.50
2017-06-29T16:02:27.608Z,61.70
2017-06-29T16:04:55.864Z,63.40
2017-06-29T16:07:22.969Z,62.20
2017-06-29T16:09:49.384Z,62.20
2017-06-29T16:12:15.785Z,62.30
2017-06-29T16:14:42.187Z,59.00
2017-06-29T16:17:08.604Z,61.50
2017-06-29T16:19:35.127Z,61.20
2017-06-29T16:22:01.508Z,63.70
2017-06-29T16:24:27.908Z,57.10
2017-06-29T16:26:54.343Z,59.30
2017-06-29T16:29:20.715Z,59.50
2017-06-29T16:31:47.209Z,56.60
2017-06-29T16:34:13.683Z,57.40
2017-06-29T16:36:40.827Z,56.30
2017-06-29T16:39:07.248Z,56.30
2017-06-29T16:41:33.652Z,58.20
2017-06-29T16:44:00.022Z,60.00
2017-06-29T16:46:26.427Z,63.00
2017-06-29T16:48:52.980Z,58.60
2017-06-29T16:51:19.420Z,58.40
2017-06-29T16:53:45.847Z,59.30
2017-06-29T16:56:12.272Z,61.80
2017-06-29T16:58:39.588Z,63.60
2017-06-29T17:01:06.735Z,65.60
2017-06-29T17:03:33.924Z,63.60
2017-06-29T17:06:00.356Z,63.60
2017-06-29T17:08:27.537Z,59.60
2017-06-29T17:10:53.944Z,59.20
2017-06-29T17:13:21.409Z,58.90
2017-06-29T17:15:47.913Z,58.90
2017-06-29T17:18:14.439Z,58.40
2017-06-29T17:20:40.839Z,59.50
2017-06-29T17:23:07.312Z,59.50
2017-06-29T17:25:33.744Z,59.60
2017-06-29T17:28:00.149Z,60.60
2017-06-29T17:30:26.596Z,61.70
2017-06-29T17:32:53.753Z,62.30
2017-06-29T17:35:20.213Z,62.30
2017-06-29T17:37:46.644Z,62.70
2017-06-29T17:40:13.864Z,65.30
2017-06-29T17:42:41.043Z,67.00
2017-06-29T17:45:07.500Z,67.00
2017-06-29T17:47:33.939Z,67.70
2017-06-29T17:50:00.387Z,70.40
2017-06-29T17:52:26.876Z,68.60
2017-06-29T17:54:53.338Z,68.80
2017-06-29T17:57:19.842Z,69.00
2017-06-29T17:59:46.365Z,68.60
2017-06-29T18:02:13.564Z,69.70
2017-06-29T18:04:39.995Z,69.60
2017-06-29T18:07:06.545Z,69.70
2017-06-29T18:09:33.032Z,70.00
2017-06-29T18:11:59.455Z,70.40
2017-06-29T18:14:26.114Z,70.60
2017-06-29T18:16:52.576Z,71.00
2017-06-29T18:19:19.097Z,71.30
2017-06-29T18:21:45.805Z,72.80
2017-06-29T18:24:12.332Z,72.10
2017-06-29T18:26:38.949Z,72.70
2017-06-29T18:29:06.430Z,73.40
2017-06-29T18:31:33.287Z,73.30
2017-06-29T18:34:00.222Z,72.70
2017-06-29T18:36:27.196Z,74.10
2017-06-29T18:38:55.891Z,73.00
2017-06-29T18:41:23.993Z,73.10
2017-06-29T18:43:51.967Z,73.80
2017-06-29T18:46:19.836Z,73.40
2017-06-29T18:48:48.411Z,76.60
2017-06-29T18:51:17.466Z,76.60
2017-06-29T18:53:46.184Z,75.10
2017-06-29T18:56:15.093Z,75.10
2017-06-29T18:58:43.871Z,76.40
2017-06-29T19:01:12.693Z,77.00
2017-06-29T19:03:40.619Z,77.10
2017-06-29T19:06:08.670Z,76.40
2017-06-29T19:08:37.389Z,77.50
2017-06-29T19:11:05.244Z,77.40
2017-06-29T19:13:33.257Z,76.80
2017-06-29T19:16:01.338Z,77.80
2017-06-29T19:18:29.201Z,76.80
2017-06-29T19:20:57.350Z,76.20
2017-06-29T19:23:25.352Z,77.60
2017-06-29T19:25:53.149Z,77.20
2017-06-29T19:28:21.211Z,77.10
2017-06-29T19:30:49.948Z,77.60
2017-06-29T19:33:17.847Z,77.60
2017-06-29T19:35:45.907Z,76.10
2017-06-29T19:38:13.878Z,77.90
2017-06-29T19:40:41.753Z,77.10
2017-06-29T19:43:11.541Z,78.60
2017-06-29T19:45:39.522Z,78.60
2017-06-29T19:48:07.434Z,77.90
2017-06-29T19:50:35.457Z,78.10
2017-06-29T19:53:03.383Z,78.60
2017-06-29T19:55:31.225Z,78.80
2017-06-29T19:57:59.326Z,79.10
2017-06-29T20:00:27.390Z,77.40
2017-06-29T20:02:55.410Z,77.10
2017-06-29T20:05:23.452Z,76.60
2017-06-29T20:07:51.660Z,76.70
2017-06-29T20:10:19.595Z,76.40
2017-06-29T20:12:47.629Z,76.90
2017-06-29T20:15:15.628Z,78.00
2017-06-29T20:17:43.758Z,77.90
2017-06-29T20:20:11.740Z,78.60
2017-06-29T20:22:39.927Z,79.00
2017-06-29T20:25:07.874Z,79.50
2017-06-29T20:27:35.888Z,80.20
2017-06-29T20:30:03.932Z,80.70
2017-06-29T20:32:31.753Z,81.50
2017-06-29T20:34:59.883Z,82.30
2017-06-29T20:37:27.834Z,82.40
2017-06-29T20:39:55.769Z,81.90
2017-06-29T20:42:23.797Z,82.50
2017-06-29T20:44:52.726Z,84.00
2017-06-29T20:47:20.529Z,83.80
2017-06-29T20:49:48.379Z,83.60
2017-06-29T20:52:16.600Z,85.40
2017-06-29T20:54:45.427Z,84.30
2017-06-29T20:57:12.548Z,83.70
2017-06-29T20:59:39.769Z,84.90
2017-06-29T21:02:06.510Z,85.20
2017-06-29T21:04:32.968Z,86.20
2017-06-29T21:06:59.493Z,86.80
2017-06-29T21:09:25.895Z,86.30
2017-06-29T21:11:52.371Z,85.20
2017-06-29T21:14:18.810Z,85.80
2017-06-29T21:16:45.215Z,86.10
2017-06-29T21:19:11.662Z,86.30
2017-06-29T21:21:38.112Z,88.20
2017-06-29T21:24:04.530Z,88.40
2017-06-29T21:26:32.023Z,88.40
2017-06-29T21:28:58.396Z,88.10
2017-06-29T21:31:24.839Z,88.10
2017-06-29T21:33:51.249Z,88.60
2017-06-29T21:36:17.691Z,88.30
2017-06-29T21:38:44.089Z,89.00
2017-06-29T21:41:10.548Z,89.50
2017-06-29T21:43:37.008Z,89.90
2017-06-29T21:46:04.151Z,90.00
2017-06-29T21:48:30.557Z,90.00
2017-06-29T21:50:57.027Z,90.20
2017-06-29T21:53:23.383Z,90.00
2017-06-29T21:55:49.816Z,90.10
2017-06-29T21:58:16.327Z,88.80
2017-06-29T22:00:42.711Z,88.70
2017-06-29T22:03:09.127Z,88.60
2017-06-29T22:05:35.571Z,88.50
2017-06-29T22:08:01.967Z,89.20
2017-06-29T22:10:28.523Z,89.50
2017-06-29T22:12:56.761Z,90.50
2017-06-29T22:15:23.477Z,90.40
2017-06-29T22:17:50.359Z,90.80
2017-06-29T22:20:19.069Z,90.20
2017-06-29T22:22:46.039Z,90.20
2017-06-29T22:25:13.057Z,91.00
2017-06-29T22:27:40.093Z,90.50
2017-06-29T22:30:07.094Z,91.10
2017-06-29T22:32:33.883Z,90.90
2017-06-29T22:35:01.116Z,90.90
2017-06-29T22:37:27.660Z,91.50
2017-06-29T22:39:54.075Z,91.70
2017-06-29T22:42:20.522Z,91.70
2017-06-29T22:44:46.939Z,91.80
2017-06-29T22:47:14.064Z,92.30
2017-06-29T22:49:40.473Z,92.30
2017-06-29T22:52:07.166Z,92.60
2017-06-29T22:54:33.615Z,92.60
2017-06-29T22:57:00.053Z,93.20
2017-06-29T22:59:27.260Z,93.80
2017-06-29T23:01:53.746Z,93.80
2017-06-29T23:04:20.191Z,93.20
2017-06-29T23:06:46.604Z,93.20
2017-06-29T23:09:13.016Z,93.20
2017-06-29T23:11:39.479Z,93.40
2017-06-29T23:14:05.859Z,93.70
2017-06-29T23:16:32.608Z,93.80
2017-06-29T23:18:59.020Z,93.40
2017-06-29T23:21:25.479Z,93.90
2017-06-29T23:23:51.947Z,93.80
2017-06-29T23:26:18.355Z,93.70
2017-06-29T23:28:44.720Z,93.70
2017-06-29T23:31:11.138Z,93.50
2017-06-29T23:33:37.564Z,93.90
2017-06-29T23:36:03.976Z,93.60
2017-06-29T23:38:31.479Z,94.00
2017-06-29T23:40:57.908Z,93.20
2017-06-29T23:43:24.291Z,93.60
2017-06-29T23:45:50.708Z,93.80
2017-06-29T23:48:17.200Z,93.20
2017-06-29T23:50:43.603Z,93.10
2017-06-29T23:53:10.020Z,92.80
2017-06-29T23:55:36.412Z,93.00
2017-06-29T23:58:02.795Z,93.70
